First Ferry Vi — VRS4293 — position and weather

sailwx.info

Track history (hours):
 
Tides and Currents Weather Stations Pressure Air Temp Water Temp Dewpoint Dewpoint Depression Visibility Wind Speed Wind Dir Waves Ship Positions

First Ferry Vi

Last reported at 2015-Sep-04 16:33 UTC. Time now 2015-Sep-04 16:39 UTC.
Position N 22°17' E 114°10'.

Length 36 m; draft 1.8 m.

Type: Tug. MMSI: 477995028.

Date/timePositionNaut miles runAvg speedWind from/ knotsBaromVisibWave heightAir tempDewpointWater temp
2015-Sep-04 16:33N 22°17' E 114°10'7 4.6
2015-Sep-04 15:07N 22°16' E 114°03'611.4
2015-Sep-04 14:33N 22°17' E 114°10'3 3.0
2015-Sep-04 13:33N 22°17' E 114°06'2 0.9
2015-Sep-04 11:20N 22°17' E 114°04'4 5.0
2015-Sep-04 10:34N 22°18' E 114°08'2 1.4
2015-Sep-04 09:23N 22°17' E 114°07'2 2.0
2015-Sep-04 08:33N 22°18' E 114°08'4 4.2
2015-Sep-04 07:30N 22°17' E 114°04'8 8.2
2015-Sep-04 06:34N 22°19' E 114°12'0 0.2
2015-Sep-04 05:33N 22°19' E 114°12'0 0.0
2015-Sep-04 04:33N 22°19' E 114°12'0 0.0
2015-Sep-04 03:34N 22°19' E 114°12'0 0.0
2015-Sep-04 02:34N 22°19' E 114°12'3 2.6
2015-Sep-04 01:31N 22°20' E 114°09'3 1.3
2015-Sep-03 23:34N 22°17' E 114°10'0 0.0
2015-Sep-03 16:33N 22°17' E 114°10'3 1.5
2015-Sep-03 14:34N 22°17' E 114°06'0 0.1
2015-Sep-03 12:33N 22°17' E 114°06'0 0.1
2015-Sep-03 10:32N 22°17' E 114°07'0 0.1
2015-Sep-03 08:33N 22°17' E 114°06'0 0.2
2015-Sep-03 06:33N 22°17' E 114°07'2 1.0
2015-Sep-03 04:15N 22°16' E 114°05'710.8
2015-Sep-03 03:33N 22°19' E 114°12'0 0.1
2015-Sep-03 02:33N 22°19' E 114°12'3 2.6
2015-Sep-03 01:33N 22°17' E 114°09'5 3.7
2015-Sep-03 00:17N 22°16' E 114°05'5 6.4
2015-Sep-02 23:33N 22°17' E 114°10'0 0.0
2015-Sep-02 16:33N 22°17' E 114°10'7 5.1
2015-Sep-02 15:10N 22°16' E 114°02'711.7
2015-Sep-02 14:33N 22°17' E 114°10'3 2.9
2015-Sep-02 13:32N 22°17' E 114°06'4 2.0
2015-Sep-02 11:26N 22°16' E 114°02'6 7.1
2015-Sep-02 10:33N 22°18' E 114°09'4 3.3
2015-Sep-02 09:28N 22°17' E 114°05'3 3.3
2015-Sep-02 08:34N 22°18' E 114°08'1 1.1
2015-Sep-02 07:23N 22°17' E 114°06'3 0.5
2015-Sep-02 01:19N 22°19' E 114°09'7 5.6
2015-Sep-02 00:03N 22°16' E 114°02'714.5
2015-Sep-01 23:33N 22°17' E 114°10'0 0.0
2015-Sep-01 16:34N 22°17' E 114°10'7 4.8
2015-Sep-01 15:09N 22°16' E 114°02'711.8
2015-Sep-01 14:33N 22°17' E 114°10'3 2.9
2015-Sep-01 13:33N 22°17' E 114°06'4 1.9
2015-Sep-01 11:24N 22°16' E 114°02'6 7.4
2015-Sep-01 10:33N 22°18' E 114°09'3 2.4
2015-Sep-01 09:25N 22°17' E 114°06'3 3.3
2015-Sep-01 08:33N 22°18' E 114°09'4 3.3
2015-Sep-01 07:27N 22°17' E 114°05'5 0.8
2015-Sep-01 01:20N 22°20' E 114°09'3 1.4
2015-Aug-31 23:33N 22°17' E 114°10'0 0.0
2015-Aug-31 16:34N 22°17' E 114°10'7 5.0
2015-Aug-31 15:08N 22°16' E 114°02'712.3
2015-Aug-31 14:33N 22°17' E 114°10'3 2.7
2015-Aug-31 13:33N 22°17' E 114°07'3 0.7
2015-Aug-31 09:33N 22°17' E 114°10'0 0.0
2015-Aug-31 07:33N 22°17' E 114°10'4 3.0
2015-Aug-31 06:04N 22°16' E 114°05'4 8.2
2015-Aug-31 05:32N 22°17' E 114°10'3 2.7
2015-Aug-31 04:34N 22°19' E 114°12'0 0.0
2015-Aug-31 03:33N 22°19' E 114°12'0 0.0
2015-Aug-31 02:33N 22°19' E 114°12'3 2.4
2015-Aug-31 01:26N 22°20' E 114°09'3 1.4
2015-Aug-30 23:33N 22°17' E 114°10'0 0.0
2015-Aug-30 16:33N 22°17' E 114°09'3 1.4
2015-Aug-30 14:33N 22°17' E 114°06'0 0.2
2015-Aug-30 12:33N 22°17' E 114°06'0 0.2
2015-Aug-30 10:33N 22°17' E 114°07'0 0.2
2015-Aug-30 08:33N 22°17' E 114°06'0 0.2
2015-Aug-30 06:33N 22°17' E 114°07'1 0.6
2015-Aug-30 04:10N 22°17' E 114°05'4 7.0
2015-Aug-30 03:33N 22°20' E 114°09'0 0.0
2015-Aug-30 02:33N 22°20' E 114°09'0 0.0
2015-Aug-30 01:33N 22°20' E 114°09'2 2.4
2015-Aug-30 00:33N 22°17' E 114°10'6 4.6
2015-Aug-29 23:19N 22°15' E 114°04'6 0.7
2015-Aug-29 15:33N 22°17' E 114°10'7 5.9
2015-Aug-29 14:23N 22°16' E 114°02'6 7.7
2015-Aug-29 13:33N 22°18' E 114°09'1 0.3
2015-Aug-29 11:33N 22°17' E 114°10'6 5.0
2015-Aug-29 10:21N 22°17' E 114°03'6 8.1
2015-Aug-29 09:33N 22°17' E 114°10'4 2.7
2015-Aug-29 08:04N 22°17' E 114°06'4 7.0
2015-Aug-29 07:33N 22°17' E 114°10'4 3.1
2015-Aug-29 06:07N 22°17' E 114°05'4 7.9
2015-Aug-29 05:33N 22°17' E 114°10'0 0.0
2015-Aug-29 03:33N 22°17' E 114°10'4 2.7
2015-Aug-29 02:03N 22°17' E 114°05'4 8.9
2015-Aug-29 01:34N 22°17' E 114°10'2 1.9
2015-Aug-29 00:33N 22°19' E 114°09'7 5.6
2015-Aug-28 23:21N 22°15' E 114°03'6 0.8
2015-Aug-28 15:33N 22°17' E 114°10'7 6.0
2015-Aug-28 14:24N 22°16' E 114°02'7 8.2
2015-Aug-28 13:33N 22°17' E 114°10'0 0.2
2015-Aug-28 12:34N 22°17' E 114°09'4 4.5
2015-Aug-28 11:33N 22°16' E 114°05'1 1.0
2015-Aug-28 10:15N 22°17' E 114°06'3 4.5
2015-Aug-28 09:32N 22°18' E 114°09'  
Track history (hours):
 
Tides and Currents Weather Stations Pressure Air Temp Water Temp Dewpoint Dewpoint Depression Visibility Wind Speed Wind Dir Waves Ship Positions

First Ferry Vi

Last reported at 2015-Sep-04 16:33 UTC. Time now 2015-Sep-04 16:39 UTC.
Position N 22°17' E 114°10'.

Length 36 m; draft 1.8 m.

Type: Tug. MMSI: 477995028.

Date/timePositionNaut miles runAvg speedWind from/ knotsBaromVisibWave heightAir tempDewpointWater temp
2015-Sep-04 16:33N 22°17' E 114°10'7 4.6
2015-Sep-04 15:07N 22°16' E 114°03'611.4
2015-Sep-04 14:33N 22°17' E 114°10'3 3.0
2015-Sep-04 13:33N 22°17' E 114°06'2 0.9
2015-Sep-04 11:20N 22°17' E 114°04'4 5.0
2015-Sep-04 10:34N 22°18' E 114°08'2 1.4
2015-Sep-04 09:23N 22°17' E 114°07'2 2.0
2015-Sep-04 08:33N 22°18' E 114°08'4 4.2
2015-Sep-04 07:30N 22°17' E 114°04'8 8.2
2015-Sep-04 06:34N 22°19' E 114°12'0 0.2
2015-Sep-04 05:33N 22°19' E 114°12'0 0.0
2015-Sep-04 04:33N 22°19' E 114°12'0 0.0
2015-Sep-04 03:34N 22°19' E 114°12'0 0.0
2015-Sep-04 02:34N 22°19' E 114°12'3 2.6
2015-Sep-04 01:31N 22°20' E 114°09'3 1.3
2015-Sep-03 23:34N 22°17' E 114°10'0 0.0
2015-Sep-03 16:33N 22°17' E 114°10'3 1.5
2015-Sep-03 14:34N 22°17' E 114°06'0 0.1
2015-Sep-03 12:33N 22°17' E 114°06'0 0.1
2015-Sep-03 10:32N 22°17' E 114°07'0 0.1
2015-Sep-03 08:33N 22°17' E 114°06'0 0.2
2015-Sep-03 06:33N 22°17' E 114°07'2 1.0
2015-Sep-03 04:15N 22°16' E 114°05'710.8
2015-Sep-03 03:33N 22°19' E 114°12'0 0.1
2015-Sep-03 02:33N 22°19' E 114°12'3 2.6
2015-Sep-03 01:33N 22°17' E 114°09'5 3.7
2015-Sep-03 00:17N 22°16' E 114°05'5 6.4
2015-Sep-02 23:33N 22°17' E 114°10'0 0.0
2015-Sep-02 16:33N 22°17' E 114°10'7 5.1
2015-Sep-02 15:10N 22°16' E 114°02'711.7
2015-Sep-02 14:33N 22°17' E 114°10'3 2.9
2015-Sep-02 13:32N 22°17' E 114°06'4 2.0
2015-Sep-02 11:26N 22°16' E 114°02'6 7.1
2015-Sep-02 10:33N 22°18' E 114°09'4 3.3
2015-Sep-02 09:28N 22°17' E 114°05'3 3.3
2015-Sep-02 08:34N 22°18' E 114°08'1 1.1
2015-Sep-02 07:23N 22°17' E 114°06'3 0.5
2015-Sep-02 01:19N 22°19' E 114°09'7 5.6
2015-Sep-02 00:03N 22°16' E 114°02'714.5
2015-Sep-01 23:33N 22°17' E 114°10'0 0.0
2015-Sep-01 16:34N 22°17' E 114°10'7 4.8
2015-Sep-01 15:09N 22°16' E 114°02'711.8
2015-Sep-01 14:33N 22°17' E 114°10'3 2.9
2015-Sep-01 13:33N 22°17' E 114°06'4 1.9
2015-Sep-01 11:24N 22°16' E 114°02'6 7.4
2015-Sep-01 10:33N 22°18' E 114°09'3 2.4
2015-Sep-01 09:25N 22°17' E 114°06'3 3.3
2015-Sep-01 08:33N 22°18' E 114°09'4 3.3
2015-Sep-01 07:27N 22°17' E 114°05'5 0.8
2015-Sep-01 01:20N 22°20' E 114°09'3 1.4
2015-Aug-31 23:33N 22°17' E 114°10'0 0.0
2015-Aug-31 16:34N 22°17' E 114°10'7 5.0
2015-Aug-31 15:08N 22°16' E 114°02'712.3
2015-Aug-31 14:33N 22°17' E 114°10'3 2.7
2015-Aug-31 13:33N 22°17' E 114°07'3 0.7
2015-Aug-31 09:33N 22°17' E 114°10'0 0.0
2015-Aug-31 07:33N 22°17' E 114°10'4 3.0
2015-Aug-31 06:04N 22°16' E 114°05'4 8.2
2015-Aug-31 05:32N 22°17' E 114°10'3 2.7
2015-Aug-31 04:34N 22°19' E 114°12'0 0.0
2015-Aug-31 03:33N 22°19' E 114°12'0 0.0
2015-Aug-31 02:33N 22°19' E 114°12'3 2.4
2015-Aug-31 01:26N 22°20' E 114°09'3 1.4
2015-Aug-30 23:33N 22°17' E 114°10'0 0.0
2015-Aug-30 16:33N 22°17' E 114°09'3 1.4
2015-Aug-30 14:33N 22°17' E 114°06'0 0.2
2015-Aug-30 12:33N 22°17' E 114°06'0 0.2
2015-Aug-30 10:33N 22°17' E 114°07'0 0.2
2015-Aug-30 08:33N 22°17' E 114°06'0 0.2
2015-Aug-30 06:33N 22°17' E 114°07'1 0.6
2015-Aug-30 04:10N 22°17' E 114°05'4 7.0
2015-Aug-30 03:33N 22°20' E 114°09'0 0.0
2015-Aug-30 02:33N 22°20' E 114°09'0 0.0
2015-Aug-30 01:33N 22°20' E 114°09'2 2.4
2015-Aug-30 00:33N 22°17' E 114°10'6 4.6
2015-Aug-29 23:19N 22°15' E 114°04'6 0.7
2015-Aug-29 15:33N 22°17' E 114°10'7 5.9
2015-Aug-29 14:23N 22°16' E 114°02'6 7.7
2015-Aug-29 13:33N 22°18' E 114°09'1 0.3
2015-Aug-29 11:33N 22°17' E 114°10'6 5.0
2015-Aug-29 10:21N 22°17' E 114°03'6 8.1
2015-Aug-29 09:33N 22°17' E 114°10'4 2.7
2015-Aug-29 08:04N 22°17' E 114°06'4 7.0
2015-Aug-29 07:33N 22°17' E 114°10'4 3.1
2015-Aug-29 06:07N 22°17' E 114°05'4 7.9
2015-Aug-29 05:33N 22°17' E 114°10'0 0.0
2015-Aug-29 03:33N 22°17' E 114°10'4 2.7
2015-Aug-29 02:03N 22°17' E 114°05'4 8.9
2015-Aug-29 01:34N 22°17' E 114°10'2 1.9
2015-Aug-29 00:33N 22°19' E 114°09'7 5.6
2015-Aug-28 23:21N 22°15' E 114°03'6 0.8
2015-Aug-28 15:33N 22°17' E 114°10'7 6.0
2015-Aug-28 14:24N 22°16' E 114°02'7 8.2
2015-Aug-28 13:33N 22°17' E 114°10'0 0.2
2015-Aug-28 12:34N 22°17' E 114°09'4 4.5
2015-Aug-28 11:33N 22°16' E 114°05'1 1.0
2015-Aug-28 10:15N 22°17' E 114°06'3 4.5
2015-Aug-28 09:32N 22°18' E 114°09'  

Dump ship's entire track history